sensor_id;sensor_type;location;lat;lon;timestamp;pressure;altitude;pressure_sealevel;temperature;humidity
74633;BME280;63139;52.018;8.552;2024-02-04T00:01:33;101092.34;;;9.39;100.00
74633;BME280;63139;52.018;8.552;2024-02-04T00:04:02;101092.19;;;9.40;100.00
74633;BME280;63139;52.018;8.552;2024-02-04T00:06:30;101092.47;;;9.37;100.00
74633;BME280;63139;52.018;8.552;2024-02-04T00:08:58;101091.13;;;9.33;100.00
74633;BME280;63139;52.018;8.552;2024-02-04T00:11:26;101094.72;;;9.32;100.00
74633;BME280;63139;52.018;8.552;2024-02-04T00:13:55;101096.53;;;9.31;100.00
74633;BME280;63139;52.018;8.552;2024-02-04T00:16:23;101097.25;;;9.33;100.00
74633;BME280;63139;52.018;8.552;2024-02-04T00:18:51;101096.41;;;9.33;100.00
74633;BME280;63139;52.018;8.552;2024-02-04T00:21:20;101100.97;;;9.41;100.00
74633;BME280;63139;52.018;8.552;2024-02-04T00:23:48;101089.94;;;9.45;100.00
74633;BME280;63139;52.018;8.552;2024-02-04T00:26:16;101070.00;;;9.51;100.00
74633;BME280;63139;52.018;8.552;2024-02-04T00:28:44;101077.34;;;9.57;100.00
74633;BME280;63139;52.018;8.552;2024-02-04T00:31:13;101065.81;;;9.58;100.00
74633;BME280;63139;52.018;8.552;2024-02-04T00:33:41;101071.94;;;9.58;100.00
74633;BME280;63139;52.018;8.552;2024-02-04T00:36:10;101064.44;;;9.54;100.00
74633;BME280;63139;52.018;8.552;2024-02-04T00:38:38;101070.72;;;9.53;100.00
74633;BME280;63139;52.018;8.552;2024-02-04T00:41:07;101071.22;;;9.56;100.00
74633;BME280;63139;52.018;8.552;2024-02-04T00:43:34;101066.66;;;9.58;100.00
74633;BME280;63139;52.018;8.552;2024-02-04T00:46:03;101060.25;;;9.61;100.00
74633;BME280;63139;52.018;8.552;2024-02-04T00:48:32;101062.44;;;9.65;100.00
74633;BME280;63139;52.018;8.552;2024-02-04T00:51:01;101048.59;;;9.71;100.00
74633;BME280;63139;52.018;8.552;2024-02-04T00:53:29;101049.84;;;9.77;100.00
74633;BME280;63139;52.018;8.552;2024-02-04T00:56:01;101043.41;;;9.80;100.00
74633;BME280;63139;52.018;8.552;2024-02-04T00:58:28;101051.75;;;9.85;100.00
74633;BME280;63139;52.018;8.552;2024-02-04T01:00:57;101040.72;;;9.89;100.00
74633;BME280;63139;52.018;8.552;2024-02-04T01:03:25;101044.06;;;9.91;100.00
74633;BME280;63139;52.018;8.552;2024-02-04T01:05:55;101044.56;;;9.95;100.00
74633;BME280;63139;52.018;8.552;2024-02-04T01:08:23;101038.00;;;9.99;100.00
74633;BME280;63139;52.018;8.552;2024-02-04T01:10:51;101036.44;;;10.06;100.00
74633;BME280;63139;52.018;8.552;2024-02-04T01:13:19;101036.72;;;10.03;100.00
74633;BME280;63139;52.018;8.552;2024-02-04T01:15:47;101022.66;;;10.02;100.00
74633;BME280;63139;52.018;8.552;2024-02-04T01:18:15;101026.81;;;10.05;100.00
74633;BME280;63139;52.018;8.552;2024-02-04T01:20:42;101022.38;;;10.05;100.00
74633;BME280;63139;52.018;8.552;2024-02-04T01:23:12;101033.91;;;10.04;100.00
74633;BME280;63139;52.018;8.552;2024-02-04T01:25:40;101028.16;;;10.09;100.00
74633;BME280;63139;52.018;8.552;2024-02-04T01:28:09;101029.84;;;10.10;100.00
74633;BME280;63139;52.018;8.552;2024-02-04T01:30:37;101038.75;;;10.09;100.00
74633;BME280;63139;52.018;8.552;2024-02-04T01:35:42;101036.09;;;10.09;100.00
74633;BME280;63139;52.018;8.552;2024-02-04T01:38:11;101021.91;;;10.10;100.00
74633;BME280;63139;52.018;8.552;2024-02-04T01:40:39;101039.59;;;10.09;100.00
74633;BME280;63139;52.018;8.552;2024-02-04T01:43:07;101034.16;;;10.11;100.00
74633;BME280;63139;52.018;8.552;2024-02-04T01:45:36;101030.53;;;10.12;100.00
74633;BME280;63139;52.018;8.552;2024-02-04T01:48:06;101023.28;;;10.14;100.00
74633;BME280;63139;52.018;8.552;2024-02-04T01:50:35;101017.16;;;10.13;100.00
74633;BME280;63139;52.018;8.552;2024-02-04T01:53:03;101007.09;;;10.17;100.00
74633;BME280;63139;52.018;8.552;2024-02-04T01:55:32;101012.41;;;10.17;100.00
74633;BME280;63139;52.018;8.552;2024-02-04T01:58:02;100995.84;;;10.15;100.00
74633;BME280;63139;52.018;8.552;2024-02-04T02:00:30;101006.81;;;10.20;100.00
74633;BME280;63139;52.018;8.552;2024-02-04T02:03:00;100995.66;;;10.17;100.00
74633;BME280;63139;52.018;8.552;2024-02-04T02:05:29;100994.94;;;10.24;100.00
74633;BME280;63139;52.018;8.552;2024-02-04T02:07:57;100993.81;;;10.27;100.00
74633;BME280;63139;52.018;8.552;2024-02-04T02:10:25;100998.94;;;10.28;100.00
74633;BME280;63139;52.018;8.552;2024-02-04T02:12:59;101005.22;;;10.27;100.00
74633;BME280;63139;52.018;8.552;2024-02-04T02:15:32;101005.91;;;10.29;100.00
74633;BME280;63139;52.018;8.552;2024-02-04T02:18:06;101015.47;;;10.30;100.00
74633;BME280;63139;52.018;8.552;2024-02-04T02:20:44;101016.03;;;10.34;100.00
74633;BME280;63139;52.018;8.552;2024-02-04T02:23:21;101016.56;;;10.37;100.00
74633;BME280;63139;52.018;8.552;2024-02-04T02:25:52;101014.13;;;10.44;100.00
74633;BME280;63139;52.018;8.552;2024-02-04T02:28:20;101012.00;;;10.47;100.00
74633;BME280;63139;52.018;8.552;2024-02-04T02:30:48;101013.19;;;10.53;100.00
74633;BME280;63139;52.018;8.552;2024-02-04T02:33:16;101009.41;;;10.56;100.00
74633;BME280;63139;52.018;8.552;2024-02-04T02:35:46;101008.56;;;10.55;100.00
74633;BME280;63139;52.018;8.552;2024-02-04T02:38:25;101002.97;;;10.58;100.00
74633;BME280;63139;52.018;8.552;2024-02-04T02:40:59;100994.69;;;10.61;100.00
74633;BME280;63139;52.018;8.552;2024-02-04T02:43:32;100996.06;;;10.65;100.00
74633;BME280;63139;52.018;8.552;2024-02-04T02:46:01;100987.28;;;10.65;100.00
74633;BME280;63139;52.018;8.552;2024-02-04T02:48:29;100987.78;;;10.68;100.00
74633;BME280;63139;52.018;8.552;2024-02-04T02:50:57;100995.59;;;10.70;100.00
74633;BME280;63139;52.018;8.552;2024-02-04T02:53:25;100974.41;;;10.70;100.00
74633;BME280;63139;52.018;8.552;2024-02-04T02:55:53;100973.13;;;10.74;100.00
74633;BME280;63139;52.018;8.552;2024-02-04T02:58:23;100971.91;;;10.68;100.00
74633;BME280;63139;52.018;8.552;2024-02-04T03:00:51;100972.28;;;10.73;100.00
74633;BME280;63139;52.018;8.552;2024-02-04T03:03:19;100966.81;;;10.75;100.00
74633;BME280;63139;52.018;8.552;2024-02-04T03:05:47;100975.44;;;10.77;100.00
74633;BME280;63139;52.018;8.552;2024-02-04T03:08:16;100993.78;;;10.70;100.00
74633;BME280;63139;52.018;8.552;2024-02-04T03:10:44;100998.03;;;10.63;100.00
74633;BME280;63139;52.018;8.552;2024-02-04T03:13:12;100994.34;;;10.56;100.00
74633;BME280;63139;52.018;8.552;2024-02-04T03:15:41;100979.16;;;10.58;100.00
74633;BME280;63139;52.018;8.552;2024-02-04T03:18:09;100974.31;;;10.54;100.00
74633;BME280;63139;52.018;8.552;2024-02-04T03:20:37;100973.94;;;10.48;100.00
74633;BME280;63139;52.018;8.552;2024-02-04T03:23:05;100976.59;;;10.48;100.00
74633;BME280;63139;52.018;8.552;2024-02-04T03:25:33;100980.00;;;10.41;100.00
74633;BME280;63139;52.018;8.552;2024-02-04T03:28:01;100975.00;;;10.38;100.00
74633;BME280;63139;52.018;8.552;2024-02-04T03:30:30;100980.63;;;10.35;100.00
74633;BME280;63139;52.018;8.552;2024-02-04T03:32:59;100984.13;;;10.35;100.00
74633;BME280;63139;52.018;8.552;2024-02-04T03:35:28;100983.28;;;10.35;100.00
74633;BME280;63139;52.018;8.552;2024-02-04T03:37:56;100974.66;;;10.33;100.00
74633;BME280;63139;52.018;8.552;2024-02-04T03:40:24;100991.00;;;10.28;100.00
74633;BME280;63139;52.018;8.552;2024-02-04T03:42:52;100990.63;;;10.23;100.00
74633;BME280;63139;52.018;8.552;2024-02-04T03:45:20;100980.09;;;10.13;100.00
74633;BME280;63139;52.018;8.552;2024-02-04T03:47:49;100974.06;;;10.03;100.00
74633;BME280;63139;52.018;8.552;2024-02-04T03:50:18;100964.72;;;9.91;100.00
74633;BME280;63139;52.018;8.552;2024-02-04T03:52:46;100975.56;;;9.88;100.00
74633;BME280;63139;52.018;8.552;2024-02-04T03:55:13;100981.94;;;9.78;100.00
74633;BME280;63139;52.018;8.552;2024-02-04T03:57:41;100971.28;;;9.69;100.00
74633;BME280;63139;52.018;8.552;2024-02-04T04:00:10;100979.97;;;9.62;100.00
74633;BME280;63139;52.018;8.552;2024-02-04T04:02:40;100986.38;;;9.59;100.00
74633;BME280;63139;52.018;8.552;2024-02-04T04:05:10;100988.72;;;9.62;100.00
74633;BME280;63139;52.018;8.552;2024-02-04T04:07:41;100985.75;;;9.65;100.00
74633;BME280;63139;52.018;8.552;2024-02-04T04:10:09;100988.63;;;9.72;100.00
74633;BME280;63139;52.018;8.552;2024-02-04T04:12:37;100978.59;;;9.76;100.00
74633;BME280;63139;52.018;8.552;2024-02-04T04:15:06;100981.94;;;9.78;100.00
74633;BME280;63139;52.018;8.552;2024-02-04T04:17:34;100979.34;;;9.86;100.00
74633;BME280;63139;52.018;8.552;2024-02-04T04:20:03;100984.72;;;9.94;100.00
74633;BME280;63139;52.018;8.552;2024-02-04T04:22:31;100981.63;;;9.98;100.00
74633;BME280;63139;52.018;8.552;2024-02-04T04:25:00;100975.38;;;9.99;100.00
74633;BME280;63139;52.018;8.552;2024-02-04T04:27:28;100990.53;;;9.97;100.00
74633;BME280;63139;52.018;8.552;2024-02-04T04:29:56;100977.00;;;10.00;100.00
74633;BME280;63139;52.018;8.552;2024-02-04T04:32:24;101000.16;;;9.98;100.00
74633;BME280;63139;52.018;8.552;2024-02-04T04:34:52;100996.53;;;9.99;100.00
74633;BME280;63139;52.018;8.552;2024-02-04T04:37:22;100999.16;;;9.99;100.00
74633;BME280;63139;52.018;8.552;2024-02-04T04:39:50;100995.84;;;9.97;100.00
74633;BME280;63139;52.018;8.552;2024-02-04T04:42:19;100994.03;;;9.98;100.00
74633;BME280;63139;52.018;8.552;2024-02-04T04:44:48;100985.75;;;10.01;100.00
74633;BME280;63139;52.018;8.552;2024-02-04T04:47:15;100994.94;;;10.06;100.00
74633;BME280;63139;52.018;8.552;2024-02-04T04:49:43;100977.69;;;10.02;100.00
74633;BME280;63139;52.018;8.552;2024-02-04T04:52:11;100961.13;;;10.00;100.00
74633;BME280;63139;52.018;8.552;2024-02-04T04:54:40;100968.25;;;10.00;100.00
74633;BME280;63139;52.018;8.552;2024-02-04T04:57:08;100962.50;;;10.04;100.00
74633;BME280;63139;52.018;8.552;2024-02-04T04:59:37;100949.19;;;9.96;100.00
74633;BME280;63139;52.018;8.552;2024-02-04T05:02:05;100966.13;;;10.03;100.00
74633;BME280;63139;52.018;8.552;2024-02-04T05:04:33;100963.19;;;10.06;100.00
74633;BME280;63139;52.018;8.552;2024-02-04T05:07:02;100965.00;;;10.06;100.00
74633;BME280;63139;52.018;8.552;2024-02-04T05:09:30;100971.78;;;10.08;100.00
74633;BME280;63139;52.018;8.552;2024-02-04T05:11:58;100978.59;;;10.11;100.00
74633;BME280;63139;52.018;8.552;2024-02-04T05:14:27;100987.66;;;10.08;100.00
74633;BME280;63139;52.018;8.552;2024-02-04T05:16:56;100987.81;;;10.07;100.00
74633;BME280;63139;52.018;8.552;2024-02-04T05:19:24;100972.94;;;10.06;100.00
74633;BME280;63139;52.018;8.552;2024-02-04T05:21:52;100954.28;;;10.07;100.00
74633;BME280;63139;52.018;8.552;2024-02-04T05:24:20;100962.72;;;10.11;100.00
74633;BME280;63139;52.018;8.552;2024-02-04T05:26:48;100956.28;;;10.13;100.00
74633;BME280;63139;52.018;8.552;2024-02-04T05:29:16;100959.59;;;10.16;100.00
74633;BME280;63139;52.018;8.552;2024-02-04T05:31:44;100964.63;;;10.19;100.00
74633;BME280;63139;52.018;8.552;2024-02-04T05:34:14;100971.59;;;10.20;100.00
74633;BME280;63139;52.018;8.552;2024-02-04T05:36:42;100967.41;;;10.17;100.00
74633;BME280;63139;52.018;8.552;2024-02-04T05:39:10;100967.97;;;10.21;100.00
74633;BME280;63139;52.018;8.552;2024-02-04T05:41:39;100965.81;;;10.24;100.00
74633;BME280;63139;52.018;8.552;2024-02-04T05:44:07;100948.47;;;10.22;100.00
74633;BME280;63139;52.018;8.552;2024-02-04T05:46:36;100944.44;;;10.18;100.00
74633;BME280;63139;52.018;8.552;2024-02-04T05:49:04;100938.59;;;10.14;100.00
74633;BME280;63139;52.018;8.552;2024-02-04T05:51:37;100950.69;;;10.17;100.00
74633;BME280;63139;52.018;8.552;2024-02-04T05:54:06;100952.13;;;10.11;100.00
74633;BME280;63139;52.018;8.552;2024-02-04T05:56:35;100942.16;;;10.05;100.00
74633;BME280;63139;52.018;8.552;2024-02-04T05:59:03;100945.84;;;10.12;100.00
74633;BME280;63139;52.018;8.552;2024-02-04T06:01:32;100961.03;;;10.10;100.00
74633;BME280;63139;52.018;8.552;2024-02-04T06:04:01;100958.72;;;10.07;100.00
74633;BME280;63139;52.018;8.552;2024-02-04T06:06:29;100936.19;;;10.03;100.00
74633;BME280;63139;52.018;8.552;2024-02-04T06:08:59;100946.84;;;10.11;100.00
74633;BME280;63139;52.018;8.552;2024-02-04T06:11:28;100933.47;;;10.12;100.00
74633;BME280;63139;52.018;8.552;2024-02-04T06:13:55;100929.31;;;10.10;100.00
74633;BME280;63139;52.018;8.552;2024-02-04T06:16:23;100926.66;;;10.10;100.00
74633;BME280;63139;52.018;8.552;2024-02-04T06:18:53;100908.47;;;10.07;100.00
74633;BME280;63139;52.018;8.552;2024-02-04T06:21:23;100917.81;;;10.01;100.00
74633;BME280;63139;52.018;8.552;2024-02-04T06:23:51;100927.06;;;9.97;100.00
74633;BME280;63139;52.018;8.552;2024-02-04T06:26:20;100939.31;;;9.98;100.00
74633;BME280;63139;52.018;8.552;2024-02-04T06:28:48;100940.91;;;9.91;100.00
74633;BME280;63139;52.018;8.552;2024-02-04T06:31:19;100935.91;;;9.88;100.00
74633;BME280;63139;52.018;8.552;2024-02-04T06:33:47;100937.09;;;9.94;100.00
74633;BME280;63139;52.018;8.552;2024-02-04T06:36:15;100936.59;;;9.90;100.00
74633;BME280;63139;52.018;8.552;2024-02-04T06:38:43;100924.19;;;9.91;100.00
74633;BME280;63139;52.018;8.552;2024-02-04T06:41:13;100920.88;;;9.89;100.00
74633;BME280;63139;52.018;8.552;2024-02-04T06:43:42;100924.06;;;9.92;100.00
74633;BME280;63139;52.018;8.552;2024-02-04T06:46:10;100909.03;;;9.93;100.00
74633;BME280;63139;52.018;8.552;2024-02-04T06:48:38;100890.31;;;9.94;100.00
74633;BME280;63139;52.018;8.552;2024-02-04T06:51:06;100885.56;;;9.98;100.00
74633;BME280;63139;52.018;8.552;2024-02-04T06:53:34;100880.97;;;10.00;100.00
74633;BME280;63139;52.018;8.552;2024-02-04T06:56:02;100869.38;;;10.01;100.00
74633;BME280;63139;52.018;8.552;2024-02-04T06:58:30;100873.84;;;10.00;100.00
74633;BME280;63139;52.018;8.552;2024-02-04T07:00:59;100885.94;;;10.03;100.00
74633;BME280;63139;52.018;8.552;2024-02-04T07:03:27;100888.56;;;10.03;100.00
74633;BME280;63139;52.018;8.552;2024-02-04T07:05:55;100885.78;;;10.04;100.00
74633;BME280;63139;52.018;8.552;2024-02-04T07:08:23;100904.00;;;10.07;100.00
74633;BME280;63139;52.018;8.552;2024-02-04T07:10:51;100909.44;;;10.06;100.00
74633;BME280;63139;52.018;8.552;2024-02-04T07:13:23;100901.03;;;10.10;100.00
74633;BME280;63139;52.018;8.552;2024-02-04T07:15:50;100917.25;;;10.16;100.00
74633;BME280;63139;52.018;8.552;2024-02-04T07:18:19;100890.16;;;10.13;100.00
74633;BME280;63139;52.018;8.552;2024-02-04T07:20:48;100903.91;;;10.17;100.00
74633;BME280;63139;52.018;8.552;2024-02-04T07:23:17;100901.38;;;10.16;100.00
74633;BME280;63139;52.018;8.552;2024-02-04T07:25:45;100909.31;;;10.16;100.00
74633;BME280;63139;52.018;8.552;2024-02-04T07:28:13;100896.94;;;10.16;100.00
74633;BME280;63139;52.018;8.552;2024-02-04T07:30:41;100915.56;;;10.06;100.00
74633;BME280;63139;52.018;8.552;2024-02-04T07:33:09;100912.38;;;10.03;100.00
74633;BME280;63139;52.018;8.552;2024-02-04T07:35:38;100908.53;;;9.97;100.00
74633;BME280;63139;52.018;8.552;2024-02-04T07:38:06;100899.78;;;9.97;100.00
74633;BME280;63139;52.018;8.552;2024-02-04T07:40:34;100903.41;;;9.96;100.00
74633;BME280;63139;52.018;8.552;2024-02-04T07:43:02;100904.84;;;9.90;100.00
74633;BME280;63139;52.018;8.552;2024-02-04T07:45:30;100902.66;;;9.86;100.00
74633;BME280;63139;52.018;8.552;2024-02-04T07:47:58;100902.66;;;9.86;100.00
74633;BME280;63139;52.018;8.552;2024-02-04T07:50:26;100894.50;;;9.79;100.00
74633;BME280;63139;52.018;8.552;2024-02-04T07:52:55;100899.63;;;9.81;100.00
74633;BME280;63139;52.018;8.552;2024-02-04T07:55:24;100893.44;;;9.72;100.00
74633;BME280;63139;52.018;8.552;2024-02-04T07:57:52;100902.13;;;9.82;100.00
74633;BME280;63139;52.018;8.552;2024-02-04T08:00:20;100898.66;;;9.82;100.00
74633;BME280;63139;52.018;8.552;2024-02-04T08:02:48;100923.28;;;9.82;100.00
74633;BME280;63139;52.018;8.552;2024-02-04T08:05:16;100905.28;;;9.86;100.00
74633;BME280;63139;52.018;8.552;2024-02-04T08:07:44;100908.25;;;9.83;100.00
74633;BME280;63139;52.018;8.552;2024-02-04T08:10:14;100911.59;;;9.85;100.00
74633;BME280;63139;52.018;8.552;2024-02-04T08:12:44;100902.50;;;9.87;100.00
74633;BME280;63139;52.018;8.552;2024-02-04T08:15:17;100889.81;;;9.91;100.00
74633;BME280;63139;52.018;8.552;2024-02-04T08:17:46;100875.06;;;9.88;100.00
74633;BME280;63139;52.018;8.552;2024-02-04T08:20:14;100880.22;;;9.90;100.00
74633;BME280;63139;52.018;8.552;2024-02-04T08:22:42;100888.97;;;9.90;100.00
74633;BME280;63139;52.018;8.552;2024-02-04T08:25:10;100892.97;;;9.94;100.00
74633;BME280;63139;52.018;8.552;2024-02-04T08:27:39;100879.66;;;10.04;100.00
74633;BME280;63139;52.018;8.552;2024-02-04T08:30:08;100889.41;;;10.03;100.00
74633;BME280;63139;52.018;8.552;2024-02-04T08:32:38;100890.31;;;9.94;100.00
74633;BME280;63139;52.018;8.552;2024-02-04T08:35:06;100900.84;;;9.86;100.00
74633;BME280;63139;52.018;8.552;2024-02-04T08:37:34;100897.22;;;9.87;100.00
74633;BME280;63139;52.018;8.552;2024-02-04T08:40:06;100901.00;;;9.85;100.00
74633;BME280;63139;52.018;8.552;2024-02-04T08:42:34;100893.09;;;9.85;100.00
74633;BME280;63139;52.018;8.552;2024-02-04T08:45:04;100889.44;;;9.86;100.00
74633;BME280;63139;52.018;8.552;2024-02-04T08:47:32;100887.84;;;9.93;100.00
74633;BME280;63139;52.018;8.552;2024-02-04T08:50:00;100884.88;;;9.96;100.00
74633;BME280;63139;52.018;8.552;2024-02-04T08:52:29;100885.09;;;10.02;100.00
74633;BME280;63139;52.018;8.552;2024-02-04T08:54:57;100882.00;;;10.07;100.00
74633;BME280;63139;52.018;8.552;2024-02-04T08:57:26;100896.16;;;9.98;100.00
74633;BME280;63139;52.018;8.552;2024-02-04T08:59:54;100892.25;;;10.10;100.00
74633;BME280;63139;52.018;8.552;2024-02-04T09:02:23;100892.94;;;10.12;100.00
74633;BME280;63139;52.018;8.552;2024-02-04T09:04:51;100887.34;;;10.15;100.00
74633;BME280;63139;52.018;8.552;2024-02-04T09:07:20;100890.16;;;10.13;100.00
74633;BME280;63139;52.018;8.552;2024-02-04T09:09:48;100901.72;;;10.12;100.00
74633;BME280;63139;52.018;8.552;2024-02-04T09:12:16;100898.09;;;10.13;100.00
74633;BME280;63139;52.018;8.552;2024-02-04T09:14:43;100884.78;;;10.23;100.00
74633;BME280;63139;52.018;8.552;2024-02-04T09:17:12;100883.50;;;10.27;100.00
74633;BME280;63139;52.018;8.552;2024-02-04T09:19:42;100892.09;;;10.29;100.00
74633;BME280;63139;52.018;8.552;2024-02-04T09:22:10;100893.78;;;10.38;100.00
74633;BME280;63139;52.018;8.552;2024-02-04T09:24:38;100881.56;;;10.37;100.00
74633;BME280;63139;52.018;8.552;2024-02-04T09:27:06;100876.53;;;10.52;100.00
74633;BME280;63139;52.018;8.552;2024-02-04T09:29:34;100880.84;;;10.61;100.00
74633;BME280;63139;52.018;8.552;2024-02-04T09:32:03;100899.41;;;10.69;100.00
74633;BME280;63139;52.018;8.552;2024-02-04T09:34:31;100888.69;;;10.71;100.00
74633;BME280;63139;52.018;8.552;2024-02-04T09:37:01;100890.53;;;10.78;100.00
74633;BME280;63139;52.018;8.552;2024-02-04T09:39:29;100892.69;;;10.83;100.00
74633;BME280;63139;52.018;8.552;2024-02-04T09:41:57;100884.94;;;10.89;100.00
74633;BME280;63139;52.018;8.552;2024-02-04T09:44:26;100879.03;;;10.96;100.00
74633;BME280;63139;52.018;8.552;2024-02-04T09:46:54;100877.50;;;10.93;100.00
74633;BME280;63139;52.018;8.552;2024-02-04T09:49:26;100874.06;;;11.01;100.00
74633;BME280;63139;52.018;8.552;2024-02-04T09:51:56;100881.63;;;10.87;100.00
74633;BME280;63139;52.018;8.552;2024-02-04T09:54:29;100886.56;;;10.74;100.00
74633;BME280;63139;52.018;8.552;2024-02-04T09:56:59;100898.97;;;10.74;100.00
74633;BME280;63139;52.018;8.552;2024-02-04T09:59:27;100898.75;;;10.67;100.00
74633;BME280;63139;52.018;8.552;2024-02-04T10:01:55;100901.03;;;10.62;100.00
74633;BME280;63139;52.018;8.552;2024-02-04T10:04:24;100888.16;;;10.67;100.00
74633;BME280;63139;52.018;8.552;2024-02-04T10:06:52;100890.34;;;10.72;100.00
74633;BME280;63139;52.018;8.552;2024-02-04T10:09:20;100872.81;;;10.79;100.00
74633;BME280;63139;52.018;8.552;2024-02-04T10:11:50;100886.06;;;10.79;100.00
74633;BME280;63139;52.018;8.552;2024-02-04T10:14:18;100888.22;;;10.83;100.00
74633;BME280;63139;52.018;8.552;2024-02-04T10:16:47;100909.22;;;10.77;100.00
74633;BME280;63139;52.018;8.552;2024-02-04T10:19:14;100904.09;;;10.75;100.00
74633;BME280;63139;52.018;8.552;2024-02-04T10:21:42;100900.59;;;10.67;100.00
74633;BME280;63139;52.018;8.552;2024-02-04T10:24:10;100893.38;;;10.51;100.00
74633;BME280;63139;52.018;8.552;2024-02-04T10:26:38;100881.56;;;10.71;100.00
74633;BME280;63139;52.018;8.552;2024-02-04T10:29:11;100876.03;;;10.99;100.00
74633;BME280;63139;52.018;8.552;2024-02-04T10:31:39;100873.25;;;11.08;100.00
74633;BME280;63139;52.018;8.552;2024-02-04T10:34:07;100881.97;;;10.93;100.00
74633;BME280;63139;52.018;8.552;2024-02-04T10:36:35;100883.97;;;10.99;100.00
74633;BME280;63139;52.018;8.552;2024-02-04T10:39:04;100880.84;;;10.95;100.00
74633;BME280;63139;52.018;8.552;2024-02-04T10:41:36;100886.28;;;10.94;100.00
74633;BME280;63139;52.018;8.552;2024-02-04T10:44:11;100890.78;;;11.01;100.00
74633;BME280;63139;52.018;8.552;2024-02-04T10:46:45;100895.63;;;11.14;100.00
74633;BME280;63139;52.018;8.552;2024-02-04T10:49:14;100900.63;;;11.17;100.00
74633;BME280;63139;52.018;8.552;2024-02-04T10:51:44;100902.28;;;11.18;100.00
74633;BME280;63139;52.018;8.552;2024-02-04T10:54:15;100916.31;;;11.10;100.00
74633;BME280;63139;52.018;8.552;2024-02-04T10:56:45;100907.53;;;11.02;100.00
74633;BME280;63139;52.018;8.552;2024-02-04T10:59:17;100892.97;;;11.14;100.00
74633;BME280;63139;52.018;8.552;2024-02-04T11:01:47;100891.03;;;11.32;100.00
74633;BME280;63139;52.018;8.552;2024-02-04T11:04:17;100886.22;;;11.36;100.00
74633;BME280;63139;52.018;8.552;2024-02-04T11:06:45;100884.59;;;11.51;100.00
74633;BME280;63139;52.018;8.552;2024-02-04T11:09:15;100873.50;;;11.63;100.00
74633;BME280;63139;52.018;8.552;2024-02-04T11:11:44;100870.56;;;11.83;100.00
74633;BME280;63139;52.018;8.552;2024-02-04T11:14:18;100863.25;;;11.93;100.00
74633;BME280;63139;52.018;8.552;2024-02-04T11:17:20;100864.91;;;11.94;100.00
74633;BME280;63139;52.018;8.552;2024-02-04T11:20:05;100856.78;;;11.87;100.00
74633;BME280;63139;52.018;8.552;2024-02-04T11:22:51;100849.19;;;11.84;100.00
74633;BME280;63139;52.018;8.552;2024-02-04T11:25:42;100848.19;;;11.85;100.00
74633;BME280;63139;52.018;8.552;2024-02-04T11:28:11;100865.53;;;11.72;100.00
74633;BME280;63139;52.018;8.552;2024-02-04T11:30:42;100837.03;;;11.49;100.00
74633;BME280;63139;52.018;8.552;2024-02-04T11:33:12;100835.38;;;11.48;100.00
74633;BME280;63139;52.018;8.552;2024-02-04T11:35:41;100842.69;;;11.46;100.00
74633;BME280;63139;52.018;8.552;2024-02-04T11:38:10;100826.41;;;11.49;100.00
74633;BME280;63139;52.018;8.552;2024-02-04T11:40:41;100830.41;;;11.45;100.00
74633;BME280;63139;52.018;8.552;2024-02-04T11:43:11;100831.56;;;11.51;100.00
74633;BME280;63139;52.018;8.552;2024-02-04T11:45:42;100827.75;;;11.45;100.00
74633;BME280;63139;52.018;8.552;2024-02-04T11:48:10;100820.78;;;11.28;100.00
74633;BME280;63139;52.018;8.552;2024-02-04T11:50:39;100816.47;;;11.27;100.00
74633;BME280;63139;52.018;8.552;2024-02-04T11:53:09;100814.47;;;11.21;100.00
74633;BME280;63139;52.018;8.552;2024-02-04T11:55:39;100810.66;;;11.23;100.00
74633;BME280;63139;52.018;8.552;2024-02-04T11:58:11;100822.09;;;11.24;100.00
74633;BME280;63139;52.018;8.552;2024-02-04T12:00:43;100809.53;;;11.26;100.00
74633;BME280;63139;52.018;8.552;2024-02-04T12:03:12;100808.50;;;11.27;100.00
74633;BME280;63139;52.018;8.552;2024-02-04T12:05:40;100811.50;;;11.24;100.00
74633;BME280;63139;52.018;8.552;2024-02-04T12:08:09;100824.41;;;11.11;100.00
74633;BME280;63139;52.018;8.552;2024-02-04T12:10:38;100818.09;;;10.96;100.00
74633;BME280;63139;52.018;8.552;2024-02-04T12:13:07;100814.75;;;10.85;100.00
74633;BME280;63139;52.018;8.552;2024-02-04T12:15:36;100814.91;;;10.84;100.00
74633;BME280;63139;52.018;8.552;2024-02-04T12:18:10;100809.94;;;10.81;100.00
74633;BME280;63139;52.018;8.552;2024-02-04T12:20:38;100809.41;;;10.77;100.00
74633;BME280;63139;52.018;8.552;2024-02-04T12:23:07;100816.22;;;10.80;100.00
74633;BME280;63139;52.018;8.552;2024-02-04T12:25:36;100806.47;;;10.88;100.00
74633;BME280;63139;52.018;8.552;2024-02-04T12:28:09;100807.13;;;10.90;100.00
74633;BME280;63139;52.018;8.552;2024-02-04T12:30:37;100815.25;;;10.89;100.00
74633;BME280;63139;52.018;8.552;2024-02-04T12:33:05;100807.81;;;10.93;100.00
74633;BME280;63139;52.018;8.552;2024-02-04T12:35:37;100798.72;;;10.95;100.00
74633;BME280;63139;52.018;8.552;2024-02-04T12:38:05;100796.06;;;11.03;100.00
74633;BME280;63139;52.018;8.552;2024-02-04T12:40:34;100797.06;;;11.02;100.00
74633;BME280;63139;52.018;8.552;2024-02-04T12:43:02;100782.50;;;11.06;100.00
74633;BME280;63139;52.018;8.552;2024-02-04T12:45:33;100784.00;;;11.09;100.00
74633;BME280;63139;52.018;8.552;2024-02-04T12:48:01;100781.00;;;11.04;100.00
74633;BME280;63139;52.018;8.552;2024-02-04T12:50:30;100789.28;;;11.01;100.00
74633;BME280;63139;52.018;8.552;2024-02-04T12:53:05;100777.03;;;11.00;100.00
74633;BME280;63139;52.018;8.552;2024-02-04T12:55:35;100786.09;;;10.97;100.00